Time,TemperatureF,DewpointF,PressureIn,WindDirection,WindDirectionDegrees,WindSpeedMPH,WindSpeedGustMPH,Humidity,HourlyPrecipIn,Conditions,Clouds,dailyrainin,SoftwareType,DateUTC
2013-03-14 00:02:00,61.7,51.5,30.10,West,270,0.0,0.0,69,0.00,,,0.00,WUHU216HW,2013-03-14 07:02:00,
2013-03-14 00:07:00,61.6,51.4,30.09,West,270,0.0,0.0,69,0.00,,,0.00,WUHU216HW,2013-03-14 07:07:00,
2013-03-14 00:12:00,61.6,51.4,30.09,West,270,0.0,0.0,69,0.00,,,0.00,WUHU216HW,2013-03-14 07:12:00,
2013-03-14 00:17:00,61.6,51.4,30.09,West,270,0.0,0.0,69,0.00,,,0.00,WUHU216HW,2013-03-14 07:17:00,
2013-03-14 00:22:00,61.4,51.6,30.09,West,270,0.0,0.0,70,0.00,,,0.00,WUHU216HW,2013-03-14 07:22:00,
2013-03-14 00:27:00,61.2,51.5,30.09,West,270,0.2,0.2,70,0.00,,,0.00,WUHU216HW,2013-03-14 07:27:00,
2013-03-14 00:32:00,61.2,51.9,30.09,SW,225,1.8,2.7,71,0.00,,,0.00,WUHU216HW,2013-03-14 07:32:00,
2013-03-14 00:37:00,60.8,51.5,30.09,West,270,1.1,2.7,71,0.00,,,0.00,WUHU216HW,2013-03-14 07:37:00,
2013-03-14 00:42:00,60.8,51.5,30.09,WNW,293,0.0,1.8,71,0.00,,,0.00,WUHU216HW,2013-03-14 07:42:00,
2013-03-14 00:47:00,60.8,51.8,30.09,West,270,0.7,1.6,72,0.00,,,0.00,WUHU216HW,2013-03-14 07:47:00,
2013-03-14 00:52:00,60.7,51.7,30.10,West,270,0.0,1.6,72,0.00,,,0.00,WUHU216HW,2013-03-14 07:52:00,
2013-03-14 00:57:00,60.5,51.5,30.10,West,270,0.0,0.4,72,0.00,,,0.00,WUHU216HW,2013-03-14 07:57:00,
2013-03-14 01:02:00,60.5,51.5,30.10,West,270,0.0,0.0,72,0.00,,,0.00,WUHU216HW,2013-03-14 08:02:00,
2013-03-14 01:07:00,60.3,51.3,30.10,North,0,0.0,0.4,72,0.00,,,0.00,WUHU216HW,2013-03-14 08:07:00,
2013-03-14 01:12:00,60.1,51.5,30.10,North,0,0.0,0.4,73,0.00,,,0.00,WUHU216HW,2013-03-14 08:12:00,
2013-03-14 01:17:00,60.1,51.5,30.10,ESE,113,1.3,1.3,73,0.00,,,0.00,WUHU216HW,2013-03-14 08:17:00,
2013-03-14 01:22:00,59.9,51.3,30.10,ESE,113,0.7,1.3,73,0.00,,,0.00,WUHU216HW,2013-03-14 08:22:00,
2013-03-14 01:27:00,59.8,51.1,30.10,ESE,113,0.0,1.1,73,0.00,,,0.00,WUHU216HW,2013-03-14 08:27:00,
2013-03-14 01:32:00,59.6,50.9,30.10,ESE,113,0.0,0.2,73,0.00,,,0.00,WUHU216HW,2013-03-14 08:32:00,
2013-03-14 01:37:00,59.4,50.8,30.10,ESE,113,0.0,0.0,73,0.00,,,0.00,WUHU216HW,2013-03-14 08:37:00,
2013-03-14 01:42:00,59.4,50.8,30.10,ESE,113,0.0,0.0,73,0.00,,,0.00,WUHU216HW,2013-03-14 08:42:00,
2013-03-14 01:47:00,59.2,50.6,30.10,ESE,113,0.0,0.0,73,0.00,,,0.00,WUHU216HW,2013-03-14 08:47:00,
2013-03-14 01:52:00,59.0,50.4,30.10,ESE,113,1.1,1.1,73,0.00,,,0.00,WUHU216HW,2013-03-14 08:52:00,
2013-03-14 01:58:00,58.9,50.2,30.10,ESE,113,0.4,1.1,73,0.00,,,0.00,WUHU216HW,2013-03-14 08:58:00,
2013-03-14 02:03:00,58.7,50.0,30.10,ESE,113,0.0,0.4,73,0.00,,,0.00,WUHU216HW,2013-03-14 09:03:00,
2013-03-14 02:08:00,58.7,50.4,30.09,ESE,113,0.0,0.0,74,0.00,,,0.00,WUHU216HW,2013-03-14 09:08:00,
2013-03-14 02:13:00,58.3,50.0,30.09,ESE,113,0.0,0.0,74,0.00,,,0.00,WUHU216HW,2013-03-14 09:13:00,
2013-03-14 02:18:00,58.1,49.9,30.09,ESE,113,0.0,0.0,74,0.00,,,0.00,WUHU216HW,2013-03-14 09:18:00,
2013-03-14 02:23:00,58.0,49.7,30.09,ESE,113,0.0,0.0,74,0.00,,,0.00,WUHU216HW,2013-03-14 09:23:00,
2013-03-14 02:28:00,58.0,49.7,30.09,ESE,113,0.0,0.0,74,0.00,,,0.00,WUHU216HW,2013-03-14 09:28:00,
2013-03-14 02:33:00,57.8,49.5,30.10,ESE,113,0.0,0.0,74,0.00,,,0.00,WUHU216HW,2013-03-14 09:33:00,
2013-03-14 02:38:00,57.8,49.5,30.10,ESE,113,0.0,0.0,74,0.00,,,0.00,WUHU216HW,2013-03-14 09:38:00,
2013-03-14 02:43:00,57.6,49.7,30.10,ESE,113,0.0,0.0,75,0.00,,,0.00,WUHU216HW,2013-03-14 09:43:00,
2013-03-14 02:48:00,57.6,49.7,30.10,ESE,113,0.0,0.4,75,0.00,,,0.00,WUHU216HW,2013-03-14 09:48:00,
2013-03-14 02:53:00,57.6,49.7,30.10,ESE,113,0.4,0.7,75,0.00,,,0.00,WUHU216HW,2013-03-14 09:53:00,
2013-03-14 02:58:00,57.4,49.9,30.10,ESE,113,0.4,1.1,76,0.00,,,0.00,WUHU216HW,2013-03-14 09:58:00,
2013-03-14 03:03:00,57.4,49.9,30.10,West,270,0.7,1.8,76,0.00,,,0.00,WUHU216HW,2013-03-14 10:03:00,
2013-03-14 03:08:00,57.2,49.7,30.10,West,270,0.0,1.8,76,0.00,,,0.00,WUHU216HW,2013-03-14 10:08:00,
2013-03-14 03:13:00,57.2,49.7,30.10,ENE,68,0.9,1.1,76,0.00,,,0.00,WUHU216HW,2013-03-14 10:13:00,
2013-03-14 03:18:00,57.1,49.5,30.10,ENE,68,0.0,1.1,76,0.00,,,0.00,WUHU216HW,2013-03-14 10:18:00,
2013-03-14 03:23:00,56.9,49.3,30.10,ENE,68,0.0,0.7,76,0.00,,,0.00,WUHU216HW,2013-03-14 10:23:00,
2013-03-14 03:28:00,56.7,49.1,30.09,ENE,68,0.0,0.0,76,0.00,,,0.00,WUHU216HW,2013-03-14 10:28:00,
2013-03-14 03:33:00,56.5,49.0,30.09,ENE,68,0.0,0.4,76,0.00,,,0.00,WUHU216HW,2013-03-14 10:33:00,
2013-03-14 03:38:00,56.5,49.0,30.09,WNW,293,0.9,0.9,76,0.00,,,0.00,WUHU216HW,2013-03-14 10:38:00,
2013-03-14 03:43:00,56.3,49.1,30.09,WNW,293,0.0,0.9,77,0.00,,,0.00,WUHU216HW,2013-03-14 10:43:00,
2013-03-14 03:48:00,56.3,49.1,30.08,WNW,293,0.0,0.7,77,0.00,,,0.00,WUHU216HW,2013-03-14 10:48:00,
2013-03-14 03:53:00,56.2,49.0,30.08,WNW,293,0.0,0.0,77,0.00,,,0.00,WUHU216HW,2013-03-14 10:53:00,
2013-03-14 03:58:00,56.2,49.0,30.08,NNW,338,0.7,0.7,77,0.00,,,0.00,WUHU216HW,2013-03-14 10:58:00,
2013-03-14 04:03:00,56.0,49.1,30.08,NNW,338,0.0,0.7,78,0.00,,,0.00,WUHU216HW,2013-03-14 11:03:00,
2013-03-14 04:08:00,55.8,48.6,30.08,ENE,68,0.7,0.7,77,0.00,,,0.00,WUHU216HW,2013-03-14 11:08:00,
2013-03-14 04:13:00,55.8,49.0,30.08,ENE,68,0.0,0.7,78,0.00,,,0.00,WUHU216HW,2013-03-14 11:13:00,
2013-03-14 04:18:00,55.6,48.8,30.08,ENE,68,0.0,0.7,78,0.00,,,0.00,WUHU216HW,2013-03-14 11:18:00,
2013-03-14 04:23:00,55.6,48.8,30.08,ENE,68,0.0,0.0,78,0.00,,,0.00,WUHU216HW,2013-03-14 11:23:00,
2013-03-14 04:28:00,55.4,48.6,30.08,ENE,68,0.0,0.0,78,0.00,,,0.00,WUHU216HW,2013-03-14 11:28:00,
2013-03-14 04:33:00,55.4,48.6,30.08,ENE,68,0.0,0.0,78,0.00,,,0.00,WUHU216HW,2013-03-14 11:33:00,
2013-03-14 04:38:00,55.3,48.5,30.08,WNW,293,0.7,1.3,78,0.00,,,0.00,WUHU216HW,2013-03-14 11:38:00,
2013-03-14 04:43:00,55.3,48.8,30.08,WNW,293,0.0,1.3,79,0.00,,,0.00,WUHU216HW,2013-03-14 11:43:00,
2013-03-14 04:48:00,55.1,48.7,30.08,West,270,1.1,1.1,79,0.00,,,0.00,WUHU216HW,2013-03-14 11:48:00,
2013-03-14 04:53:00,54.9,48.5,30.08,West,270,0.0,1.1,79,0.00,,,0.00,WUHU216HW,2013-03-14 11:53:00,
2013-03-14 04:58:00,54.9,48.5,30.08,West,270,0.0,0.4,79,0.00,,,0.00,WUHU216HW,2013-03-14 11:58:00,
2013-03-14 05:03:00,54.9,48.5,30.08,West,270,0.0,0.0,79,0.00,,,0.00,WUHU216HW,2013-03-14 12:03:00,
2013-03-14 05:08:00,54.7,48.3,30.08,West,270,0.9,0.9,79,0.00,,,0.00,WUHU216HW,2013-03-14 12:08:00,
2013-03-14 05:13:00,54.7,48.3,30.08,ENE,68,1.1,1.1,79,0.00,,,0.00,WUHU216HW,2013-03-14 12:13:00,
2013-03-14 05:18:00,54.5,47.8,30.08,ENE,68,0.0,1.1,78,0.00,,,0.00,WUHU216HW,2013-03-14 12:18:00,
2013-03-14 05:23:00,54.5,47.8,30.08,East,90,1.1,1.1,78,0.00,,,0.00,WUHU216HW,2013-03-14 12:23:00,
2013-03-14 05:28:00,54.4,47.6,30.08,ESE,113,0.0,1.1,78,0.00,,,0.00,WUHU216HW,2013-03-14 12:28:00,
2013-03-14 05:33:00,54.4,47.6,30.08,ESE,113,0.0,0.9,78,0.00,,,0.00,WUHU216HW,2013-03-14 12:33:00,
2013-03-14 05:38:00,54.2,47.5,30.08,ESE,113,0.0,0.0,78,0.00,,,0.00,WUHU216HW,2013-03-14 12:38:00,
2013-03-14 05:43:00,54.2,47.5,30.08,East,90,0.4,0.4,78,0.00,,,0.00,WUHU216HW,2013-03-14 12:43:00,
2013-03-14 05:48:00,54.2,47.8,30.08,East,90,0.0,0.7,79,0.00,,,0.00,WUHU216HW,2013-03-14 12:48:00,
2013-03-14 05:53:00,54.2,47.8,30.08,East,90,0.0,0.7,79,0.00,,,0.00,WUHU216HW,2013-03-14 12:53:00,
2013-03-14 05:58:00,54.0,47.7,30.08,East,90,0.0,0.7,79,0.00,,,0.00,WUHU216HW,2013-03-14 12:58:00,
2013-03-14 06:03:00,53.8,47.5,30.08,East,90,0.4,0.7,79,0.00,,,0.00,WUHU216HW,2013-03-14 13:03:00,
2013-03-14 06:08:00,53.8,47.5,30.08,East,90,1.6,1.6,79,0.00,,,0.00,WUHU216HW,2013-03-14 13:08:00,
2013-03-14 06:13:00,53.8,47.5,30.08,West,270,0.0,1.6,79,0.00,,,0.00,WUHU216HW,2013-03-14 13:13:00,
2013-03-14 06:18:00,53.6,47.3,30.08,West,270,0.0,1.3,79,0.00,,,0.00,WUHU216HW,2013-03-14 13:18:00,
2013-03-14 06:23:00,53.6,47.3,30.08,WSW,248,0.4,0.7,79,0.00,,,0.00,WUHU216HW,2013-03-14 13:23:00,
2013-03-14 06:28:00,53.6,47.3,30.08,North,0,0.0,0.7,79,0.00,,,0.00,WUHU216HW,2013-03-14 13:28:00,
2013-03-14 06:33:00,53.5,47.2,30.08,ENE,68,0.7,0.9,79,0.00,,,0.00,WUHU216HW,2013-03-14 13:33:00,
2013-03-14 06:38:00,53.3,47.0,30.09,ENE,68,0.0,0.9,79,0.00,,,0.00,WUHU216HW,2013-03-14 13:38:00,
2013-03-14 06:43:00,53.3,47.0,30.09,ENE,68,0.0,0.7,79,0.00,,,0.00,WUHU216HW,2013-03-14 13:43:00,
2013-03-14 06:48:00,53.3,47.3,30.09,ENE,68,0.0,0.4,80,0.00,,,0.00,WUHU216HW,2013-03-14 13:48:00,
2013-03-14 06:53:00,53.1,47.2,30.09,ENE,68,0.0,0.4,80,0.00,,,0.00,WUHU216HW,2013-03-14 13:53:00,
2013-03-14 06:58:00,53.1,47.2,30.09,ENE,68,0.0,0.0,80,0.00,,,0.00,WUHU216HW,2013-03-14 13:58:00,
2013-03-14 07:03:00,53.1,47.2,30.09,ENE,68,0.4,0.9,80,0.00,,,0.00,WUHU216HW,2013-03-14 14:03:00,
2013-03-14 07:08:00,52.9,47.0,30.09,NW,315,0.2,1.1,80,0.00,,,0.00,WUHU216HW,2013-03-14 14:08:00,
2013-03-14 07:13:00,52.9,47.0,30.09,NW,315,0.0,1.1,80,0.00,,,0.00,WUHU216HW,2013-03-14 14:13:00,
2013-03-14 07:18:00,52.9,47.0,30.09,ENE,68,0.9,0.9,80,0.00,,,0.00,WUHU216HW,2013-03-14 14:18:00,
2013-03-14 07:23:00,52.7,46.8,30.10,ENE,68,0.0,1.1,80,0.00,,,0.00,WUHU216HW,2013-03-14 14:23:00,
2013-03-14 07:28:00,52.7,46.8,30.10,ENE,68,0.0,1.1,80,0.00,,,0.00,WUHU216HW,2013-03-14 14:28:00,
2013-03-14 07:33:00,52.6,46.6,30.10,ENE,68,1.1,1.1,80,0.00,,,0.00,WUHU216HW,2013-03-14 14:33:00,
2013-03-14 07:38:00,52.6,46.6,30.10,ENE,68,0.0,1.1,80,0.00,,,0.00,WUHU216HW,2013-03-14 14:38:00,
2013-03-14 07:43:00,52.4,46.4,30.10,ENE,68,0.0,1.1,80,0.00,,,0.00,WUHU216HW,2013-03-14 14:43:00,
2013-03-14 07:48:00,52.4,46.4,30.10,ENE,68,0.0,0.4,80,0.00,,,0.00,WUHU216HW,2013-03-14 14:48:00,
2013-03-14 07:53:00,52.4,46.7,30.11,NNW,338,0.4,0.4,81,0.00,,,0.00,WUHU216HW,2013-03-14 14:53:00,
2013-03-14 07:58:00,52.4,46.7,30.11,NNW,338,0.0,0.4,81,0.00,,,0.00,WUHU216HW,2013-03-14 14:58:00,
2013-03-14 08:03:00,52.4,46.7,30.11,NNW,338,0.4,0.4,81,0.00,,,0.00,WUHU216HW,2013-03-14 15:03:00,
2013-03-14 08:08:00,52.2,46.5,30.11,NW,315,1.1,1.1,81,0.00,,,0.00,WUHU216HW,2013-03-14 15:08:00,
2013-03-14 08:13:00,52.4,46.7,30.12,West,270,0.0,1.8,81,0.00,,,0.00,WUHU216HW,2013-03-14 15:13:00,
2013-03-14 08:18:00,52.4,46.7,30.11,West,270,0.0,1.8,81,0.00,,,0.00,WUHU216HW,2013-03-14 15:18:00,
2013-03-14 08:23:00,52.6,46.9,30.11,SSE,158,0.4,0.7,81,0.00,,,0.00,WUHU216HW,2013-03-14 15:23:00,
2013-03-14 08:28:00,52.6,47.3,30.11,ENE,68,2.0,2.0,82,0.00,,,0.00,WUHU216HW,2013-03-14 15:28:00,
2013-03-14 08:33:00,52.6,47.3,30.11,ENE,68,2.2,2.2,82,0.00,,,0.00,WUHU216HW,2013-03-14 15:33:00,
2013-03-14 08:38:00,52.7,47.4,30.12,NE,45,0.0,2.2,82,0.00,,,0.00,WUHU216HW,2013-03-14 15:38:00,
2013-03-14 08:43:00,52.7,47.4,30.12,North,0,0.0,0.7,82,0.00,,,0.00,WUHU216HW,2013-03-14 15:43:00,
2013-03-14 08:48:00,52.9,47.6,30.12,NW,315,0.0,0.2,82,0.00,,,0.00,WUHU216HW,2013-03-14 15:48:00,
2013-03-14 08:53:00,53.1,47.8,30.13,West,270,1.1,1.3,82,0.00,,,0.00,WUHU216HW,2013-03-14 15:53:00,
2013-03-14 08:58:00,53.3,48.2,30.13,West,270,0.2,1.3,83,0.00,,,0.00,WUHU216HW,2013-03-14 15:58:00,
2013-03-14 09:03:00,53.6,49.0,30.13,WSW,248,1.8,1.8,84,0.00,,,0.00,WUHU216HW,2013-03-14 16:03:00,
2013-03-14 09:08:00,53.6,49.0,30.13,SW,225,1.1,1.8,84,0.00,,,0.00,WUHU216HW,2013-03-14 16:08:00,
2013-03-14 09:13:00,53.8,49.1,30.14,WSW,248,0.7,1.8,84,0.00,,,0.00,WUHU216HW,2013-03-14 16:13:00,
2013-03-14 09:18:00,54.0,49.2,30.14,ESE,113,0.4,1.8,84,0.00,,,0.00,WUHU216HW,2013-03-14 16:18:00,
2013-03-14 09:23:00,54.2,49.4,30.14,SW,225,0.0,0.9,84,0.00,,,0.00,WUHU216HW,2013-03-14 16:23:00,
2013-03-14 09:28:00,54.4,49.6,30.14,South,180,0.2,0.7,84,0.00,,,0.00,WUHU216HW,2013-03-14 16:28:00,
2013-03-14 09:33:00,54.5,49.8,30.15,South,180,1.6,1.8,84,0.00,,,0.00,WUHU216HW,2013-03-14 16:33:00,
2013-03-14 09:38:00,54.7,50.0,30.14,ESE,113,0.7,1.8,84,0.00,,,0.00,WUHU216HW,2013-03-14 16:38:00,
2013-03-14 09:43:00,55.1,50.3,30.14,SE,135,1.6,2.2,84,0.00,,,0.00,WUHU216HW,2013-03-14 16:43:00,
2013-03-14 09:48:00,55.3,50.5,30.14,South,180,0.0,2.2,84,0.00,,,0.00,WUHU216HW,2013-03-14 16:48:00,
2013-03-14 09:53:00,55.4,50.6,30.15,SSW,203,0.4,1.6,84,0.00,,,0.00,WUHU216HW,2013-03-14 16:53:00,
2013-03-14 09:58:00,55.8,50.9,30.15,WSW,248,1.1,1.3,84,0.00,,,0.00,WUHU216HW,2013-03-14 16:58:00,
2013-03-14 10:03:00,56.2,51.3,30.15,West,270,0.4,1.3,84,0.00,,,0.00,WUHU216HW,2013-03-14 17:03:00,
2013-03-14 10:08:00,56.3,51.5,30.15,West,270,1.8,1.8,84,0.00,,,0.00,WUHU216HW,2013-03-14 17:08:00,
2013-03-14 10:13:00,56.9,52.4,30.16,WNW,293,1.1,1.8,85,0.00,,,0.00,WUHU216HW,2013-03-14 17:13:00,
2013-03-14 10:18:00,57.1,52.6,30.16,SW,225,2.2,2.2,85,0.00,,,0.00,WUHU216HW,2013-03-14 17:18:00,
2013-03-14 10:23:00,57.4,52.6,30.16,SW,225,3.1,3.1,84,0.00,,,0.00,WUHU216HW,2013-03-14 17:23:00,
2013-03-14 10:28:00,57.8,52.9,30.16,West,270,1.8,3.1,84,0.00,,,0.00,WUHU216HW,2013-03-14 17:28:00,
2013-03-14 10:33:00,58.0,52.8,30.16,North,0,0.4,3.1,83,0.00,,,0.00,WUHU216HW,2013-03-14 17:33:00,
2013-03-14 10:38:00,58.1,53.0,30.16,West,270,1.3,1.8,83,0.00,,,0.00,WUHU216HW,2013-03-14 17:38:00,
2013-03-14 10:43:00,58.3,53.2,30.16,SW,225,2.7,2.7,83,0.00,,,0.00,WUHU216HW,2013-03-14 17:43:00,
2013-03-14 10:48:00,58.7,53.6,30.16,WSW,248,0.4,2.7,83,0.00,,,0.00,WUHU216HW,2013-03-14 17:48:00,
2013-03-14 10:53:00,59.0,53.6,30.16,WSW,248,1.8,2.7,82,0.00,,,0.00,WUHU216HW,2013-03-14 17:53:00,
2013-03-14 10:58:00,59.4,53.7,30.16,SSW,203,1.1,1.8,81,0.00,,,0.00,WUHU216HW,2013-03-14 17:58:00,
2013-03-14 11:04:00,59.6,53.8,30.15,SSE,158,2.2,2.2,81,0.00,,,0.00,WUHU216HW,2013-03-14 18:04:00,
2013-03-14 11:09:00,59.9,54.2,30.15,SSE,158,1.6,2.2,81,0.00,,,0.00,WUHU216HW,2013-03-14 18:09:00,
2013-03-14 11:14:00,60.5,54.4,30.15,SSE,158,0.9,2.2,80,0.00,,,0.00,WUHU216HW,2013-03-14 18:14:00,
2013-03-14 11:19:00,60.8,54.4,30.15,SSE,158,0.7,1.3,79,0.00,,,0.00,WUHU216HW,2013-03-14 18:19:00,
2013-03-14 11:24:00,61.2,54.7,30.15,SE,135,1.8,1.8,79,0.00,,,0.00,WUHU216HW,2013-03-14 18:24:00,
2013-03-14 11:29:00,61.7,55.2,30.15,SSW,203,0.9,1.8,79,0.00,,,0.00,WUHU216HW,2013-03-14 18:29:00,
2013-03-14 11:34:00,62.1,55.2,30.15,SE,135,1.6,1.8,78,0.00,,,0.00,WUHU216HW,2013-03-14 18:34:00,
2013-03-14 11:39:00,62.5,55.1,30.15,SE,135,1.1,1.6,77,0.00,,,0.00,WUHU216HW,2013-03-14 18:39:00,
2013-03-14 11:44:00,62.6,55.3,30.15,SW,225,1.6,1.6,77,0.00,,,0.00,WUHU216HW,2013-03-14 18:44:00,
2013-03-14 11:49:00,63.0,55.3,30.16,WSW,248,2.7,2.7,76,0.00,,,0.00,WUHU216HW,2013-03-14 18:49:00,
2013-03-14 11:54:00,63.2,55.4,30.16,WSW,248,2.2,2.7,76,0.00,,,0.00,WUHU216HW,2013-03-14 18:54:00,
2013-03-14 11:59:00,63.9,56.2,30.16,SSW,203,1.8,3.6,76,0.00,,,0.00,WUHU216HW,2013-03-14 18:59:00,
2013-03-14 12:04:00,64.3,56.2,30.15,WSW,248,3.8,3.8,75,0.00,,,0.00,WUHU216HW,2013-03-14 19:04:00,
2013-03-14 12:09:00,64.6,56.2,30.15,West,270,4.0,4.0,74,0.00,,,0.00,WUHU216HW,2013-03-14 19:09:00,
2013-03-14 12:14:00,64.8,56.0,30.15,WNW,293,4.7,5.4,73,0.00,,,0.00,WUHU216HW,2013-03-14 19:14:00,
2013-03-14 12:19:00,64.8,55.6,30.15,WNW,293,3.6,5.4,72,0.00,,,0.00,WUHU216HW,2013-03-14 19:19:00,
2013-03-14 12:24:00,65.2,56.3,30.15,WSW,248,2.9,4.7,73,0.00,,,0.00,WUHU216HW,2013-03-14 19:24:00,
2013-03-14 12:29:00,65.3,56.4,30.15,West,270,4.0,4.3,73,0.00,,,0.00,WUHU216HW,2013-03-14 19:29:00,
2013-03-14 12:34:00,65.5,56.3,30.15,NW,315,4.5,4.5,72,0.00,,,0.00,WUHU216HW,2013-03-14 19:34:00,
2013-03-14 12:39:00,65.3,55.7,30.15,WNW,293,5.8,7.2,71,0.00,,,0.00,WUHU216HW,2013-03-14 19:39:00,
2013-03-14 12:44:00,65.2,55.5,30.15,West,270,4.7,7.2,71,0.00,,,0.00,WUHU216HW,2013-03-14 19:44:00,
2013-03-14 12:49:00,65.2,55.5,30.15,WSW,248,2.9,5.8,71,0.00,,,0.00,WUHU216HW,2013-03-14 19:49:00,
2013-03-14 12:54:00,65.3,55.7,30.16,WSW,248,2.5,4.7,71,0.00,,,0.00,WUHU216HW,2013-03-14 19:54:00,
2013-03-14 12:59:00,65.5,55.9,30.15,SW,225,5.1,5.1,71,0.00,,,0.00,WUHU216HW,2013-03-14 19:59:00,
2013-03-14 13:04:00,65.7,55.7,30.16,WNW,293,3.8,5.1,70,0.00,,,0.00,WUHU216HW,2013-03-14 20:04:00,
2013-03-14 13:09:00,65.9,55.8,30.15,WSW,248,3.6,5.1,70,0.00,,,0.00,WUHU216HW,2013-03-14 20:09:00,
2013-03-14 13:14:00,66.2,56.2,30.15,NW,315,2.7,4.7,70,0.00,,,0.00,WUHU216HW,2013-03-14 20:14:00,
2013-03-14 13:19:00,66.2,55.7,30.14,SW,225,4.0,4.7,69,0.00,,,0.00,WUHU216HW,2013-03-14 20:19:00,
2013-03-14 13:24:00,66.4,55.9,30.14,SW,225,6.3,6.5,69,0.00,,,0.00,WUHU216HW,2013-03-14 20:24:00,
2013-03-14 13:29:00,66.6,56.1,30.14,West,270,4.7,6.5,69,0.00,,,0.00,WUHU216HW,2013-03-14 20:29:00,
2013-03-14 13:34:00,67.0,56.1,30.14,WSW,248,4.3,6.3,68,0.00,,,0.00,WUHU216HW,2013-03-14 20:34:00,
2013-03-14 13:39:00,67.0,56.4,30.14,WNW,293,2.7,4.7,69,0.00,,,0.00,WUHU216HW,2013-03-14 20:39:00,
2013-03-14 13:44:00,67.1,56.3,30.14,WSW,248,2.5,2.7,68,0.00,,,0.00,WUHU216HW,2013-03-14 20:44:00,
2013-03-14 13:49:00,67.3,55.5,30.14,WSW,248,3.4,5.8,66,0.00,,,0.00,WUHU216HW,2013-03-14 20:49:00,
2013-03-14 13:54:00,67.5,56.2,30.14,West,270,2.5,6.5,67,0.00,,,0.00,WUHU216HW,2013-03-14 20:54:00,
2013-03-14 13:59:00,67.5,56.2,30.13,WSW,248,4.3,6.5,67,0.00,,,0.00,WUHU216HW,2013-03-14 20:59:00,
2013-03-14 14:04:00,67.9,56.1,30.13,WSW,248,2.9,4.3,66,0.00,,,0.00,WUHU216HW,2013-03-14 21:04:00,
2013-03-14 14:09:00,68.2,56.4,30.13,WSW,248,5.1,5.1,66,0.00,,,0.00,WUHU216HW,2013-03-14 21:09:00,
2013-03-14 14:14:00,68.4,56.2,30.14,WNW,293,7.8,7.8,65,0.00,,,0.00,WUHU216HW,2013-03-14 21:14:00,
2013-03-14 14:19:00,68.6,55.9,30.13,NNW,338,3.8,7.8,64,0.00,,,0.00,WUHU216HW,2013-03-14 21:19:00,
2013-03-14 14:24:00,68.8,56.1,30.13,WSW,248,3.8,7.8,64,0.00,,,0.00,WUHU216HW,2013-03-14 21:24:00,
2013-03-14 14:29:00,69.1,56.0,30.13,West,270,5.1,5.1,63,0.00,,,0.00,WUHU216HW,2013-03-14 21:29:00,
2013-03-14 14:34:00,69.3,55.4,30.13,West,270,4.0,5.1,61,0.00,,,0.00,WUHU216HW,2013-03-14 21:34:00,
2013-03-14 14:39:00,69.5,55.5,30.13,WSW,248,5.6,5.6,61,0.00,,,0.00,WUHU216HW,2013-03-14 21:39:00,
2013-03-14 14:44:00,69.8,56.3,30.13,WSW,248,4.5,5.6,62,0.00,,,0.00,WUHU216HW,2013-03-14 21:44:00,
2013-03-14 14:49:00,70.2,56.2,30.13,WNW,293,5.4,7.4,61,0.00,,,0.00,WUHU216HW,2013-03-14 21:49:00,
2013-03-14 14:54:00,70.2,55.8,30.13,WNW,293,2.7,7.4,60,0.00,,,0.00,WUHU216HW,2013-03-14 21:54:00,
2013-03-14 14:59:00,70.2,55.8,30.13,NNW,338,8.1,8.1,60,0.00,,,0.00,WUHU216HW,2013-03-14 21:59:00,
2013-03-14 15:04:00,70.2,56.2,30.13,West,270,4.0,8.1,61,0.00,,,0.00,WUHU216HW,2013-03-14 22:04:00,
2013-03-14 15:09:00,70.9,56.4,30.12,West,270,2.5,8.1,60,0.00,,,0.00,WUHU216HW,2013-03-14 22:09:00,
2013-03-14 15:14:00,71.3,56.7,30.12,WSW,248,2.7,4.9,60,0.00,,,0.00,WUHU216HW,2013-03-14 22:14:00,
2013-03-14 15:19:00,71.5,56.9,30.12,SW,225,2.5,4.3,60,0.00,,,0.00,WUHU216HW,2013-03-14 22:19:00,
2013-03-14 15:24:00,71.6,56.1,30.13,WSW,248,2.7,2.7,58,0.00,,,0.00,WUHU216HW,2013-03-14 22:24:00,
2013-03-14 15:29:00,71.5,55.9,30.13,West,270,3.4,3.4,58,0.00,,,0.00,WUHU216HW,2013-03-14 22:29:00,
2013-03-14 15:34:00,71.6,56.1,30.13,WSW,248,6.0,6.0,58,0.00,,,0.00,WUHU216HW,2013-03-14 22:34:00,
2013-03-14 15:39:00,71.6,56.1,30.13,West,270,1.3,6.0,58,0.00,,,0.00,WUHU216HW,2013-03-14 22:39:00,
2013-03-14 15:44:00,72.0,55.9,30.13,West,270,2.5,2.5,57,0.00,,,0.00,WUHU216HW,2013-03-14 22:44:00,
2013-03-14 15:49:00,72.2,56.1,30.13,WSW,248,3.6,3.6,57,0.00,,,0.00,WUHU216HW,2013-03-14 22:49:00,
2013-03-14 15:54:00,72.4,56.2,30.13,SW,225,4.5,4.5,57,0.00,,,0.00,WUHU216HW,2013-03-14 22:54:00,
2013-03-14 15:59:00,72.4,55.7,30.13,NW,315,2.9,4.5,56,0.00,,,0.00,WUHU216HW,2013-03-14 22:59:00,
2013-03-14 16:04:00,72.2,56.1,30.13,West,270,3.1,4.5,57,0.00,,,0.00,WUHU216HW,2013-03-14 23:04:00,
2013-03-14 16:09:00,72.2,56.1,30.12,West,270,2.5,4.0,57,0.00,,,0.00,WUHU216HW,2013-03-14 23:09:00,
2013-03-14 16:14:00,72.0,55.9,30.12,SSW,203,3.4,3.4,57,0.00,,,0.00,WUHU216HW,2013-03-14 23:14:00,
2013-03-14 16:19:00,72.0,55.9,30.12,WSW,248,2.9,3.4,57,0.00,,,0.00,WUHU216HW,2013-03-14 23:19:00,
2013-03-14 16:24:00,72.2,56.1,30.12,WSW,248,3.8,3.8,57,0.00,,,0.00,WUHU216HW,2013-03-14 23:24:00,
2013-03-14 16:29:00,72.4,56.2,30.13,NW,315,4.5,4.9,57,0.00,,,0.00,WUHU216HW,2013-03-14 23:29:00,
2013-03-14 16:34:00,72.2,56.1,30.12,WSW,248,3.8,4.9,57,0.00,,,0.00,WUHU216HW,2013-03-14 23:34:00,
2013-03-14 16:39:00,71.8,55.2,30.13,WSW,248,3.6,4.0,56,0.00,,,0.00,WUHU216HW,2013-03-14 23:39:00,
2013-03-14 16:44:00,71.5,54.9,30.13,WNW,293,8.1,8.1,56,0.00,,,0.00,WUHU216HW,2013-03-14 23:44:00,
2013-03-14 16:49:00,70.2,53.3,30.13,West,270,4.3,8.5,55,0.00,,,0.00,WUHU216HW,2013-03-14 23:49:00,
2013-03-14 16:54:00,70.0,53.6,30.13,West,270,4.0,8.5,56,0.00,,,0.00,WUHU216HW,2013-03-14 23:54:00,
2013-03-14 16:59:00,69.5,53.6,30.13,West,270,4.7,4.7,57,0.00,,,0.00,WUHU216HW,2013-03-14 23:59:00,
2013-03-14 17:04:00,69.5,53.6,30.13,SW,225,2.7,4.7,57,0.00,,,0.00,WUHU216HW,2013-03-15 00:04:00,
2013-03-14 17:09:00,69.3,53.4,30.13,NW,315,2.2,4.7,57,0.00,,,0.00,WUHU216HW,2013-03-15 00:09:00,
2013-03-14 17:14:00,69.3,53.4,30.13,WNW,293,2.5,3.4,57,0.00,,,0.00,WUHU216HW,2013-03-15 00:14:00,
2013-03-14 17:19:00,69.1,53.2,30.12,WNW,293,3.4,3.8,57,0.00,,,0.00,WUHU216HW,2013-03-15 00:19:00,
2013-03-14 17:24:00,68.9,53.0,30.13,West,270,4.9,4.9,57,0.00,,,0.00,WUHU216HW,2013-03-15 00:24:00,
2013-03-14 17:29:00,68.6,52.8,30.13,SW,225,7.8,7.8,57,0.00,,,0.00,WUHU216HW,2013-03-15 00:29:00,
2013-03-14 17:34:00,68.6,53.2,30.13,WSW,248,4.5,7.8,58,0.00,,,0.00,WUHU216HW,2013-03-15 00:34:00,
2013-03-14 17:39:00,68.8,52.9,30.12,SW,225,4.0,7.8,57,0.00,,,0.00,WUHU216HW,2013-03-15 00:39:00,
2013-03-14 17:44:00,68.6,53.2,30.12,SW,225,4.7,4.7,58,0.00,,,0.00,WUHU216HW,2013-03-15 00:44:00,
2013-03-14 17:49:00,68.6,53.2,30.13,SW,225,4.9,4.9,58,0.00,,,0.00,WUHU216HW,2013-03-15 00:49:00,
2013-03-14 17:54:00,68.2,52.8,30.12,WSW,248,1.6,4.9,58,0.00,,,0.00,WUHU216HW,2013-03-15 00:54:00,
2013-03-14 17:59:00,67.9,52.0,30.12,WSW,248,3.1,4.9,57,0.00,,,0.00,WUHU216HW,2013-03-15 00:59:00,
2013-03-14 18:04:00,67.5,51.7,30.13,West,270,4.0,4.0,57,0.00,,,0.00,WUHU216HW,2013-03-15 01:04:00,
2013-03-14 18:09:00,67.3,51.6,30.12,West,270,2.5,4.0,57,0.00,,,0.00,WUHU216HW,2013-03-15 01:09:00,
2013-03-14 18:14:00,67.0,51.7,30.12,SW,225,1.8,4.0,58,0.00,,,0.00,WUHU216HW,2013-03-15 01:14:00,
2013-03-14 18:19:00,67.0,51.7,30.12,SSW,203,2.5,2.5,58,0.00,,,0.00,WUHU216HW,2013-03-15 01:19:00,
2013-03-14 18:24:00,67.1,51.8,30.12,West,270,1.8,2.5,58,0.00,,,0.00,WUHU216HW,2013-03-15 01:24:00,
2013-03-14 18:29:00,66.8,51.6,30.12,South,180,1.3,2.5,58,0.00,,,0.00,WUHU216HW,2013-03-15 01:29:00,
2013-03-14 18:34:00,66.8,51.6,30.12,SE,135,0.4,2.2,58,0.00,,,0.00,WUHU216HW,2013-03-15 01:34:00,
2013-03-14 18:39:00,66.8,51.6,30.12,SW,225,0.9,1.3,58,0.00,,,0.00,WUHU216HW,2013-03-15 01:39:00,
2013-03-14 18:44:00,66.6,51.4,30.12,WSW,248,0.4,0.9,58,0.00,,,0.00,WUHU216HW,2013-03-15 01:44:00,
2013-03-14 18:49:00,66.6,51.8,30.12,WSW,248,1.3,1.3,59,0.00,,,0.00,WUHU216HW,2013-03-15 01:49:00,
2013-03-14 18:54:00,66.4,51.2,30.11,NW,315,0.9,1.3,58,0.00,,,0.00,WUHU216HW,2013-03-15 01:54:00,
2013-03-14 18:59:00,66.2,51.6,30.10,North,0,1.1,1.3,59,0.00,,,0.00,WUHU216HW,2013-03-15 01:59:00,
2013-03-14 19:04:00,65.7,51.0,30.10,NNE,23,0.7,1.1,59,0.00,,,0.00,WUHU216HW,2013-03-15 02:04:00,
2013-03-14 19:09:00,65.5,50.9,30.11,NNE,23,0.4,1.1,59,0.00,,,0.00,WUHU216HW,2013-03-15 02:09:00,
2013-03-14 19:14:00,65.5,51.3,30.11,SW,225,0.7,0.7,60,0.00,,,0.00,WUHU216HW,2013-03-15 02:14:00,
2013-03-14 19:19:00,65.2,50.9,30.11,West,270,1.8,1.8,60,0.00,,,0.00,WUHU216HW,2013-03-15 02:19:00,
2013-03-14 19:24:00,65.0,50.8,30.11,West,270,0.4,1.8,60,0.00,,,0.00,WUHU216HW,2013-03-15 02:24:00,
2013-03-14 19:29:00,64.8,51.0,30.11,West,270,1.1,1.8,61,0.00,,,0.00,WUHU216HW,2013-03-15 02:29:00,
2013-03-14 19:34:00,64.8,51.0,30.11,West,270,1.3,2.0,61,0.00,,,0.00,WUHU216HW,2013-03-15 02:34:00,
2013-03-14 19:39:00,64.4,50.7,30.11,WSW,248,1.1,2.0,61,0.00,,,0.00,WUHU216HW,2013-03-15 02:39:00,
2013-03-14 19:44:00,64.1,50.8,30.11,WNW,293,1.3,1.3,62,0.00,,,0.00,WUHU216HW,2013-03-15 02:44:00,
2013-03-14 19:49:00,63.7,50.4,30.11,WNW,293,3.4,3.4,62,0.00,,,0.00,WUHU216HW,2013-03-15 02:49:00,
2013-03-14 19:54:00,63.7,50.9,30.11,WSW,248,2.5,3.4,63,0.00,,,0.00,WUHU216HW,2013-03-15 02:54:00,
2013-03-14 19:59:00,63.5,50.7,30.12,WSW,248,1.8,3.4,63,0.00,,,0.00,WUHU216HW,2013-03-15 02:59:00,
2013-03-14 20:04:00,63.5,51.1,30.12,West,270,1.1,3.4,64,0.00,,,0.00,WUHU216HW,2013-03-15 03:04:00,
2013-03-14 20:09:00,63.5,51.1,30.12,WNW,293,1.1,1.8,64,0.00,,,0.00,WUHU216HW,2013-03-15 03:09:00,
2013-03-14 20:14:00,63.4,51.0,30.11,West,270,1.8,1.8,64,0.00,,,0.00,WUHU216HW,2013-03-15 03:14:00,
2013-03-14 20:19:00,63.0,50.6,30.11,NW,315,0.9,2.7,64,0.00,,,0.00,WUHU216HW,2013-03-15 03:19:00,
2013-03-14 20:24:00,62.8,50.4,30.11,WNW,293,3.6,3.6,64,0.00,,,0.00,WUHU216HW,2013-03-15 03:24:00,
2013-03-14 20:29:00,62.5,50.5,30.11,WNW,293,1.1,3.6,65,0.00,,,0.00,WUHU216HW,2013-03-15 03:29:00,
2013-03-14 20:34:00,62.3,50.3,30.11,NW,315,2.5,3.1,65,0.00,,,0.00,WUHU216HW,2013-03-15 03:34:00,
2013-03-14 20:40:00,62.1,50.2,30.12,WSW,248,1.3,3.1,65,0.00,,,0.00,WUHU216HW,2013-03-15 03:40:00,
2013-03-14 20:45:00,62.3,50.8,30.12,WSW,248,2.7,2.7,66,0.00,,,0.00,WUHU216HW,2013-03-15 03:45:00,
2013-03-14 20:50:00,62.3,50.8,30.12,WSW,248,2.0,2.7,66,0.00,,,0.00,WUHU216HW,2013-03-15 03:50:00,
2013-03-14 20:55:00,62.1,50.6,30.13,WNW,293,0.9,2.5,66,0.00,,,0.00,WUHU216HW,2013-03-15 03:55:00,
2013-03-14 21:00:00,61.9,50.4,30.12,WNW,293,0.0,2.5,66,0.00,,,0.00,WUHU216HW,2013-03-15 04:00:00,
2013-03-14 21:05:00,61.9,50.9,30.12,WNW,293,0.0,1.3,67,0.00,,,0.00,WUHU216HW,2013-03-15 04:05:00,
2013-03-14 21:10:00,61.9,50.9,30.13,North,0,0.7,0.7,67,0.00,,,0.00,WUHU216HW,2013-03-15 04:10:00,
2013-03-14 21:15:00,61.7,50.7,30.13,ENE,68,1.1,1.1,67,0.00,,,0.00,WUHU216HW,2013-03-15 04:15:00,
2013-03-14 21:20:00,61.7,50.7,30.13,NE,45,1.3,1.3,67,0.00,,,0.00,WUHU216HW,2013-03-15 04:20:00,
2013-03-14 21:25:00,61.6,50.5,30.13,ENE,68,0.9,1.6,67,0.00,,,0.00,WUHU216HW,2013-03-15 04:25:00,
2013-03-14 21:30:00,61.4,50.8,30.11,NE,45,2.2,2.2,68,0.00,,,0.00,WUHU216HW,2013-03-15 04:30:00,
2013-03-14 21:35:00,61.2,50.6,30.11,ENE,68,1.3,2.2,68,0.00,,,0.00,WUHU216HW,2013-03-15 04:35:00,
2013-03-14 21:40:00,61.0,50.0,30.12,SE,135,0.7,1.8,67,0.00,,,0.00,WUHU216HW,2013-03-15 04:40:00,
2013-03-14 21:45:00,60.8,49.9,30.12,South,180,1.3,1.3,67,0.00,,,0.00,WUHU216HW,2013-03-15 04:45:00,
2013-03-14 21:50:00,60.8,49.9,30.12,South,180,0.0,1.3,67,0.00,,,0.00,WUHU216HW,2013-03-15 04:50:00,
2013-03-14 21:55:00,60.8,49.9,30.13,SW,225,1.1,1.3,67,0.00,,,0.00,WUHU216HW,2013-03-15 04:55:00,
2013-03-14 22:00:00,60.5,50.0,30.13,West,270,4.0,4.0,68,0.00,,,0.00,WUHU216HW,2013-03-15 05:00:00,
2013-03-14 22:05:00,59.8,49.6,30.13,WNW,293,3.1,4.0,69,0.00,,,0.00,WUHU216HW,2013-03-15 05:05:00,
2013-03-14 22:10:00,59.4,49.2,30.13,WNW,293,1.8,3.4,69,0.00,,,0.00,WUHU216HW,2013-03-15 05:10:00,
2013-03-14 22:15:00,59.0,49.3,30.13,West,270,3.1,3.4,70,0.00,,,0.00,WUHU216HW,2013-03-15 05:15:00,
2013-03-14 22:20:00,58.9,49.1,30.13,West,270,4.7,4.7,70,0.00,,,0.00,WUHU216HW,2013-03-15 05:20:00,
2013-03-14 22:25:00,58.7,49.3,30.13,West,270,3.8,4.7,71,0.00,,,0.00,WUHU216HW,2013-03-15 05:25:00,
2013-03-14 22:30:00,58.5,49.1,30.13,WNW,293,0.4,4.7,71,0.00,,,0.00,WUHU216HW,2013-03-15 05:30:00,
2013-03-14 22:35:00,58.3,49.0,30.13,West,270,1.3,1.8,71,0.00,,,0.00,WUHU216HW,2013-03-15 05:35:00,
2013-03-14 22:40:00,58.3,49.0,30.13,NE,45,0.0,1.3,71,0.00,,,0.00,WUHU216HW,2013-03-15 05:40:00,
2013-03-14 22:45:00,58.3,49.0,30.13,SE,135,1.1,2.0,71,0.00,,,0.00,WUHU216HW,2013-03-15 05:45:00,
2013-03-14 22:50:00,58.3,49.0,30.13,ESE,113,0.7,2.0,71,0.00,,,0.00,WUHU216HW,2013-03-15 05:50:00,
2013-03-14 22:55:00,58.3,49.0,30.13,NE,45,0.7,0.9,71,0.00,,,0.00,WUHU216HW,2013-03-15 05:55:00,
2013-03-14 23:00:00,58.3,49.0,30.13,East,90,1.8,1.8,71,0.00,,,0.00,WUHU216HW,2013-03-15 06:00:00,
2013-03-14 23:05:00,58.1,49.1,30.13,ENE,68,0.2,1.8,72,0.00,,,0.00,WUHU216HW,2013-03-15 06:05:00,
2013-03-14 23:10:00,58.0,49.0,30.13,East,90,1.1,1.8,72,0.00,,,0.00,WUHU216HW,2013-03-15 06:10:00,
2013-03-14 23:15:00,58.0,49.0,30.13,North,0,0.0,1.3,72,0.00,,,0.00,WUHU216HW,2013-03-15 06:15:00,
2013-03-14 23:20:00,57.8,48.8,30.14,South,180,0.4,1.3,72,0.00,,,0.00,WUHU216HW,2013-03-15 06:20:00,
2013-03-14 23:25:00,57.8,48.8,30.14,ESE,113,0.0,1.1,72,0.00,,,0.00,WUHU216HW,2013-03-15 06:25:00,
2013-03-14 23:30:00,57.6,48.6,30.14,WNW,293,1.1,1.1,72,0.00,,,0.00,WUHU216HW,2013-03-15 06:30:00,
2013-03-14 23:35:00,57.4,48.4,30.14,WSW,248,1.3,1.3,72,0.00,,,0.00,WUHU216HW,2013-03-15 06:35:00,
2013-03-14 23:40:00,57.2,48.2,30.14,WNW,293,1.8,1.8,72,0.00,,,0.00,WUHU216HW,2013-03-15 06:40:00,
2013-03-14 23:45:00,56.9,48.2,30.13,NNW,338,0.0,1.8,73,0.00,,,0.00,WUHU216HW,2013-03-15 06:45:00,
2013-03-14 23:50:00,56.7,48.1,30.13,NNW,338,0.4,1.8,73,0.00,,,0.00,WUHU216HW,2013-03-15 06:50:00,
2013-03-14 23:55:00,56.7,48.1,30.13,NNW,338,0.7,0.7,73,0.00,,,0.00,WUHU216HW,2013-03-15 06:55:00,